sensor_id;sensor_type;location;lat;lon;timestamp;P1;durP1;ratioP1;P2;durP2;ratioP2
23628;SDS011;11991;57.150;-2.134;2024-03-08T00:00:11;5.93;;;3.08;;
23628;SDS011;11991;57.150;-2.134;2024-03-08T00:02:42;5.45;;;3.65;;
23628;SDS011;11991;57.150;-2.134;2024-03-08T00:05:09;7.45;;;3.88;;
23628;SDS011;11991;57.150;-2.134;2024-03-08T00:07:37;4.90;;;2.85;;
23628;SDS011;11991;57.150;-2.134;2024-03-08T00:10:09;6.18;;;3.50;;
23628;SDS011;11991;57.150;-2.134;2024-03-08T00:12:40;4.07;;;2.60;;
23628;SDS011;11991;57.150;-2.134;2024-03-08T00:15:13;4.30;;;3.15;;
23628;SDS011;11991;57.150;-2.134;2024-03-08T00:17:43;4.85;;;2.63;;
23628;SDS011;11991;57.150;-2.134;2024-03-08T00:20:11;4.78;;;3.00;;
23628;SDS011;11991;57.150;-2.134;2024-03-08T00:22:40;5.22;;;3.35;;
23628;SDS011;11991;57.150;-2.134;2024-03-08T00:25:07;5.95;;;2.65;;
23628;SDS011;11991;57.150;-2.134;2024-03-08T00:27:41;5.57;;;3.20;;
23628;SDS011;11991;57.150;-2.134;2024-03-08T00:30:08;6.18;;;3.28;;
23628;SDS011;11991;57.150;-2.134;2024-03-08T00:32:37;5.90;;;3.20;;
23628;SDS011;11991;57.150;-2.134;2024-03-08T00:35:05;5.15;;;2.83;;
23628;SDS011;11991;57.150;-2.134;2024-03-08T00:37:34;2.78;;;2.03;;
23628;SDS011;11991;57.150;-2.134;2024-03-08T00:40:01;4.25;;;2.83;;
23628;SDS011;11991;57.150;-2.134;2024-03-08T00:42:29;3.80;;;2.75;;
23628;SDS011;11991;57.150;-2.134;2024-03-08T00:44:56;5.35;;;2.97;;
23628;SDS011;11991;57.150;-2.134;2024-03-08T00:47:25;3.83;;;2.88;;
23628;SDS011;11991;57.150;-2.134;2024-03-08T00:49:52;5.70;;;3.55;;
23628;SDS011;11991;57.150;-2.134;2024-03-08T00:52:23;3.70;;;2.22;;
23628;SDS011;11991;57.150;-2.134;2024-03-08T00:54:53;5.90;;;3.55;;
23628;SDS011;11991;57.150;-2.134;2024-03-08T00:57:21;5.18;;;3.03;;
23628;SDS011;11991;57.150;-2.134;2024-03-08T00:59:48;4.45;;;3.35;;
23628;SDS011;11991;57.150;-2.134;2024-03-08T01:02:15;5.25;;;3.42;;
23628;SDS011;11991;57.150;-2.134;2024-03-08T01:04:45;5.40;;;3.45;;
23628;SDS011;11991;57.150;-2.134;2024-03-08T01:07:13;8.43;;;4.13;;
23628;SDS011;11991;57.150;-2.134;2024-03-08T01:09:41;7.05;;;4.53;;
23628;SDS011;11991;57.150;-2.134;2024-03-08T01:12:08;6.35;;;4.05;;
23628;SDS011;11991;57.150;-2.134;2024-03-08T01:14:37;3.85;;;2.72;;
23628;SDS011;11991;57.150;-2.134;2024-03-08T01:17:04;5.13;;;2.80;;
23628;SDS011;11991;57.150;-2.134;2024-03-08T01:19:31;4.80;;;2.83;;
23628;SDS011;11991;57.150;-2.134;2024-03-08T01:21:59;4.97;;;2.40;;
23628;SDS011;11991;57.150;-2.134;2024-03-08T01:24:26;7.88;;;4.03;;
23628;SDS011;11991;57.150;-2.134;2024-03-08T01:26:54;3.65;;;3.00;;
23628;SDS011;11991;57.150;-2.134;2024-03-08T01:29:21;4.30;;;2.88;;
23628;SDS011;11991;57.150;-2.134;2024-03-08T01:31:49;3.72;;;3.03;;
23628;SDS011;11991;57.150;-2.134;2024-03-08T01:34:16;4.32;;;3.45;;
23628;SDS011;11991;57.150;-2.134;2024-03-08T01:36:43;4.25;;;3.38;;
23628;SDS011;11991;57.150;-2.134;2024-03-08T01:39:11;4.10;;;3.33;;
23628;SDS011;11991;57.150;-2.134;2024-03-08T01:41:40;6.40;;;3.88;;
23628;SDS011;11991;57.150;-2.134;2024-03-08T01:44:07;5.57;;;3.30;;
23628;SDS011;11991;57.150;-2.134;2024-03-08T01:46:35;4.18;;;3.22;;
23628;SDS011;11991;57.150;-2.134;2024-03-08T01:49:02;6.65;;;4.05;;
23628;SDS011;11991;57.150;-2.134;2024-03-08T01:51:30;5.30;;;3.28;;
23628;SDS011;11991;57.150;-2.134;2024-03-08T01:53:58;6.60;;;4.50;;
23628;SDS011;11991;57.150;-2.134;2024-03-08T01:56:30;7.90;;;5.20;;
23628;SDS011;11991;57.150;-2.134;2024-03-08T01:58:58;5.22;;;3.63;;
23628;SDS011;11991;57.150;-2.134;2024-03-08T02:01:27;9.85;;;6.35;;
23628;SDS011;11991;57.150;-2.134;2024-03-08T02:03:55;7.25;;;5.00;;
23628;SDS011;11991;57.150;-2.134;2024-03-08T02:06:22;8.75;;;5.03;;
23628;SDS011;11991;57.150;-2.134;2024-03-08T02:08:49;14.50;;;6.82;;
23628;SDS011;11991;57.150;-2.134;2024-03-08T02:11:16;10.82;;;5.70;;
23628;SDS011;11991;57.150;-2.134;2024-03-08T02:13:45;9.13;;;5.05;;
23628;SDS011;11991;57.150;-2.134;2024-03-08T02:16:12;8.00;;;4.65;;
23628;SDS011;11991;57.150;-2.134;2024-03-08T02:18:46;7.28;;;3.92;;
23628;SDS011;11991;57.150;-2.134;2024-03-08T02:21:13;8.82;;;5.40;;
23628;SDS011;11991;57.150;-2.134;2024-03-08T02:23:44;12.13;;;6.60;;
23628;SDS011;11991;57.150;-2.134;2024-03-08T02:26:12;5.68;;;3.50;;
23628;SDS011;11991;57.150;-2.134;2024-03-08T02:28:39;7.32;;;4.32;;
23628;SDS011;11991;57.150;-2.134;2024-03-08T02:31:09;9.63;;;5.20;;
23628;SDS011;11991;57.150;-2.134;2024-03-08T02:33:37;6.90;;;4.03;;
23628;SDS011;11991;57.150;-2.134;2024-03-08T02:36:04;8.10;;;4.70;;
23628;SDS011;11991;57.150;-2.134;2024-03-08T02:38:33;9.75;;;5.07;;
23628;SDS011;11991;57.150;-2.134;2024-03-08T02:41:00;8.00;;;4.43;;
23628;SDS011;11991;57.150;-2.134;2024-03-08T02:43:27;10.10;;;5.05;;
23628;SDS011;11991;57.150;-2.134;2024-03-08T02:45:54;4.10;;;3.15;;
23628;SDS011;11991;57.150;-2.134;2024-03-08T02:48:21;9.57;;;4.57;;
23628;SDS011;11991;57.150;-2.134;2024-03-08T02:50:49;8.00;;;4.68;;
23628;SDS011;11991;57.150;-2.134;2024-03-08T02:53:18;7.38;;;3.80;;
23628;SDS011;11991;57.150;-2.134;2024-03-08T02:55:49;5.10;;;3.13;;
23628;SDS011;11991;57.150;-2.134;2024-03-08T02:58:16;7.15;;;4.72;;
23628;SDS011;11991;57.150;-2.134;2024-03-08T03:00:43;5.93;;;4.15;;
23628;SDS011;11991;57.150;-2.134;2024-03-08T03:03:11;5.15;;;3.55;;
23628;SDS011;11991;57.150;-2.134;2024-03-08T03:05:39;7.53;;;4.18;;
23628;SDS011;11991;57.150;-2.134;2024-03-08T03:08:14;4.65;;;3.22;;
23628;SDS011;11991;57.150;-2.134;2024-03-08T03:10:44;5.55;;;4.00;;
23628;SDS011;11991;57.150;-2.134;2024-03-08T03:13:12;5.40;;;3.30;;
23628;SDS011;11991;57.150;-2.134;2024-03-08T03:15:40;6.18;;;3.38;;
23628;SDS011;11991;57.150;-2.134;2024-03-08T03:18:10;8.23;;;3.08;;
23628;SDS011;11991;57.150;-2.134;2024-03-08T03:20:38;4.90;;;3.30;;
23628;SDS011;11991;57.150;-2.134;2024-03-08T03:23:09;6.65;;;3.60;;
23628;SDS011;11991;57.150;-2.134;2024-03-08T03:25:41;6.60;;;3.53;;
23628;SDS011;11991;57.150;-2.134;2024-03-08T03:28:09;8.05;;;4.15;;
23628;SDS011;11991;57.150;-2.134;2024-03-08T03:30:38;5.35;;;3.28;;
23628;SDS011;11991;57.150;-2.134;2024-03-08T03:33:06;5.25;;;3.65;;
23628;SDS011;11991;57.150;-2.134;2024-03-08T03:35:34;6.72;;;3.38;;
23628;SDS011;11991;57.150;-2.134;2024-03-08T03:38:03;5.22;;;2.92;;
23628;SDS011;11991;57.150;-2.134;2024-03-08T03:40:36;4.22;;;2.75;;
23628;SDS011;11991;57.150;-2.134;2024-03-08T03:43:05;5.47;;;3.45;;
23628;SDS011;11991;57.150;-2.134;2024-03-08T03:45:34;7.15;;;3.83;;
23628;SDS011;11991;57.150;-2.134;2024-03-08T03:48:07;4.85;;;2.38;;
23628;SDS011;11991;57.150;-2.134;2024-03-08T03:50:38;5.15;;;3.15;;
23628;SDS011;11991;57.150;-2.134;2024-03-08T03:53:06;5.60;;;2.92;;
23628;SDS011;11991;57.150;-2.134;2024-03-08T03:55:35;8.25;;;3.58;;
23628;SDS011;11991;57.150;-2.134;2024-03-08T03:58:07;6.78;;;3.13;;
23628;SDS011;11991;57.150;-2.134;2024-03-08T04:00:37;5.85;;;3.40;;
23628;SDS011;11991;57.150;-2.134;2024-03-08T04:03:04;5.28;;;2.97;;
23628;SDS011;11991;57.150;-2.134;2024-03-08T04:05:33;5.60;;;2.72;;
23628;SDS011;11991;57.150;-2.134;2024-03-08T04:08:01;4.53;;;3.03;;
23628;SDS011;11991;57.150;-2.134;2024-03-08T04:10:29;6.03;;;2.97;;
23628;SDS011;11991;57.150;-2.134;2024-03-08T04:12:56;7.93;;;3.55;;
23628;SDS011;11991;57.150;-2.134;2024-03-08T04:15:23;6.53;;;3.08;;
23628;SDS011;11991;57.150;-2.134;2024-03-08T04:17:51;7.05;;;3.65;;
23628;SDS011;11991;57.150;-2.134;2024-03-08T04:20:19;6.93;;;3.20;;
23628;SDS011;11991;57.150;-2.134;2024-03-08T04:22:48;5.72;;;2.90;;
23628;SDS011;11991;57.150;-2.134;2024-03-08T04:25:16;6.65;;;3.17;;
23628;SDS011;11991;57.150;-2.134;2024-03-08T04:27:43;4.47;;;2.77;;
23628;SDS011;11991;57.150;-2.134;2024-03-08T04:30:11;5.72;;;3.05;;
23628;SDS011;11991;57.150;-2.134;2024-03-08T04:32:39;4.57;;;2.88;;
23628;SDS011;11991;57.150;-2.134;2024-03-08T04:35:08;4.33;;;2.97;;
23628;SDS011;11991;57.150;-2.134;2024-03-08T04:37:35;4.75;;;2.90;;
23628;SDS011;11991;57.150;-2.134;2024-03-08T04:40:03;5.03;;;2.80;;
23628;SDS011;11991;57.150;-2.134;2024-03-08T04:42:30;5.65;;;2.97;;
23628;SDS011;11991;57.150;-2.134;2024-03-08T04:45:01;7.43;;;3.80;;
23628;SDS011;11991;57.150;-2.134;2024-03-08T04:47:30;6.60;;;3.75;;
23628;SDS011;11991;57.150;-2.134;2024-03-08T04:49:58;4.25;;;2.88;;
23628;SDS011;11991;57.150;-2.134;2024-03-08T04:52:26;2.83;;;2.03;;
23628;SDS011;11991;57.150;-2.134;2024-03-08T04:54:54;5.05;;;2.65;;
23628;SDS011;11991;57.150;-2.134;2024-03-08T04:57:21;4.27;;;2.83;;
23628;SDS011;11991;57.150;-2.134;2024-03-08T04:59:48;4.05;;;2.65;;
23628;SDS011;11991;57.150;-2.134;2024-03-08T05:02:15;5.43;;;3.07;;
23628;SDS011;11991;57.150;-2.134;2024-03-08T05:04:43;4.07;;;2.58;;
23628;SDS011;11991;57.150;-2.134;2024-03-08T05:07:11;5.70;;;3.40;;
23628;SDS011;11991;57.150;-2.134;2024-03-08T05:09:38;7.70;;;3.80;;
23628;SDS011;11991;57.150;-2.134;2024-03-08T05:12:06;7.13;;;3.17;;
23628;SDS011;11991;57.150;-2.134;2024-03-08T05:14:34;5.10;;;3.03;;
23628;SDS011;11991;57.150;-2.134;2024-03-08T05:17:02;6.40;;;2.58;;
23628;SDS011;11991;57.150;-2.134;2024-03-08T05:19:29;6.30;;;2.85;;
23628;SDS011;11991;57.150;-2.134;2024-03-08T05:22:00;3.72;;;2.20;;
23628;SDS011;11991;57.150;-2.134;2024-03-08T05:24:28;6.68;;;2.97;;
23628;SDS011;11991;57.150;-2.134;2024-03-08T05:26:57;3.83;;;2.17;;
23628;SDS011;11991;57.150;-2.134;2024-03-08T05:29:26;4.10;;;2.28;;
23628;SDS011;11991;57.150;-2.134;2024-03-08T05:31:53;3.78;;;2.28;;
23628;SDS011;11991;57.150;-2.134;2024-03-08T05:34:21;5.30;;;3.33;;
23628;SDS011;11991;57.150;-2.134;2024-03-08T05:36:49;6.32;;;2.97;;
23628;SDS011;11991;57.150;-2.134;2024-03-08T05:39:17;3.40;;;2.53;;
23628;SDS011;11991;57.150;-2.134;2024-03-08T05:41:46;6.40;;;2.55;;
23628;SDS011;11991;57.150;-2.134;2024-03-08T05:44:14;4.45;;;2.72;;
23628;SDS011;11991;57.150;-2.134;2024-03-08T05:46:44;6.83;;;3.00;;
23628;SDS011;11991;57.150;-2.134;2024-03-08T05:49:11;4.20;;;2.40;;
23628;SDS011;11991;57.150;-2.134;2024-03-08T05:51:39;4.97;;;2.53;;
23628;SDS011;11991;57.150;-2.134;2024-03-08T05:54:07;3.65;;;2.22;;
23628;SDS011;11991;57.150;-2.134;2024-03-08T05:56:43;4.30;;;2.53;;
23628;SDS011;11991;57.150;-2.134;2024-03-08T05:59:11;3.37;;;2.70;;
23628;SDS011;11991;57.150;-2.134;2024-03-08T06:01:40;2.80;;;2.30;;
23628;SDS011;11991;57.150;-2.134;2024-03-08T06:04:09;2.53;;;2.13;;
23628;SDS011;11991;57.150;-2.134;2024-03-08T06:06:39;3.55;;;2.15;;
23628;SDS011;11991;57.150;-2.134;2024-03-08T06:09:07;4.77;;;2.43;;
23628;SDS011;11991;57.150;-2.134;2024-03-08T06:11:41;3.92;;;1.95;;
23628;SDS011;11991;57.150;-2.134;2024-03-08T06:14:09;3.55;;;1.90;;
23628;SDS011;11991;57.150;-2.134;2024-03-08T06:16:36;2.72;;;1.60;;
23628;SDS011;11991;57.150;-2.134;2024-03-08T06:19:05;3.43;;;2.33;;
23628;SDS011;11991;57.150;-2.134;2024-03-08T06:21:32;4.47;;;2.50;;
23628;SDS011;11991;57.150;-2.134;2024-03-08T06:23:59;5.03;;;3.00;;
23628;SDS011;11991;57.150;-2.134;2024-03-08T06:26:27;3.03;;;2.20;;
23628;SDS011;11991;57.150;-2.134;2024-03-08T06:28:56;5.45;;;2.67;;
23628;SDS011;11991;57.150;-2.134;2024-03-08T06:31:24;5.18;;;2.60;;
23628;SDS011;11991;57.150;-2.134;2024-03-08T06:33:51;4.13;;;2.60;;
23628;SDS011;11991;57.150;-2.134;2024-03-08T06:36:22;6.30;;;3.03;;
23628;SDS011;11991;57.150;-2.134;2024-03-08T06:38:50;5.93;;;2.58;;
23628;SDS011;11991;57.150;-2.134;2024-03-08T06:41:18;6.60;;;3.30;;
23628;SDS011;11991;57.150;-2.134;2024-03-08T06:43:45;5.95;;;3.00;;
23628;SDS011;11991;57.150;-2.134;2024-03-08T06:46:14;4.28;;;2.80;;
23628;SDS011;11991;57.150;-2.134;2024-03-08T06:48:42;3.37;;;2.40;;
23628;SDS011;11991;57.150;-2.134;2024-03-08T06:51:10;7.03;;;3.40;;
23628;SDS011;11991;57.150;-2.134;2024-03-08T06:53:38;6.60;;;2.95;;
23628;SDS011;11991;57.150;-2.134;2024-03-08T06:56:05;6.57;;;3.37;;
23628;SDS011;11991;57.150;-2.134;2024-03-08T06:58:35;3.50;;;2.75;;
23628;SDS011;11991;57.150;-2.134;2024-03-08T07:01:02;4.70;;;2.50;;
23628;SDS011;11991;57.150;-2.134;2024-03-08T07:03:34;3.35;;;2.53;;
23628;SDS011;11991;57.150;-2.134;2024-03-08T07:06:01;3.70;;;2.60;;
23628;SDS011;11991;57.150;-2.134;2024-03-08T07:08:30;8.57;;;2.73;;
23628;SDS011;11991;57.150;-2.134;2024-03-08T07:10:59;3.42;;;2.40;;
23628;SDS011;11991;57.150;-2.134;2024-03-08T07:13:27;4.47;;;2.67;;
23628;SDS011;11991;57.150;-2.134;2024-03-08T07:15:57;4.53;;;2.55;;
23628;SDS011;11991;57.150;-2.134;2024-03-08T07:18:27;3.63;;;2.22;;
23628;SDS011;11991;57.150;-2.134;2024-03-08T07:20:57;3.85;;;2.25;;
23628;SDS011;11991;57.150;-2.134;2024-03-08T07:23:24;4.10;;;2.60;;
23628;SDS011;11991;57.150;-2.134;2024-03-08T07:26:10;4.73;;;2.13;;
23628;SDS011;11991;57.150;-2.134;2024-03-08T07:28:37;7.03;;;3.47;;
23628;SDS011;11991;57.150;-2.134;2024-03-08T07:31:04;5.25;;;2.45;;
23628;SDS011;11991;57.150;-2.134;2024-03-08T07:33:44;5.97;;;2.90;;
23628;SDS011;11991;57.150;-2.134;2024-03-08T07:36:11;5.22;;;2.72;;
23628;SDS011;11991;57.150;-2.134;2024-03-08T07:38:38;4.60;;;3.10;;
23628;SDS011;11991;57.150;-2.134;2024-03-08T07:41:06;5.03;;;2.23;;
23628;SDS011;11991;57.150;-2.134;2024-03-08T07:43:33;2.00;;;1.70;;
23628;SDS011;11991;57.150;-2.134;2024-03-08T07:46:00;3.73;;;1.93;;
23628;SDS011;11991;57.150;-2.134;2024-03-08T07:48:27;4.70;;;2.58;;
23628;SDS011;11991;57.150;-2.134;2024-03-08T07:50:55;5.30;;;3.10;;
23628;SDS011;11991;57.150;-2.134;2024-03-08T07:53:22;4.60;;;3.17;;
23628;SDS011;11991;57.150;-2.134;2024-03-08T07:55:53;3.67;;;2.65;;
23628;SDS011;11991;57.150;-2.134;2024-03-08T07:58:20;4.28;;;2.42;;
23628;SDS011;11991;57.150;-2.134;2024-03-08T08:00:47;5.13;;;2.97;;
23628;SDS011;11991;57.150;-2.134;2024-03-08T08:03:16;3.80;;;2.77;;
23628;SDS011;11991;57.150;-2.134;2024-03-08T08:05:47;5.07;;;2.90;;
23628;SDS011;11991;57.150;-2.134;2024-03-08T08:08:15;6.32;;;3.60;;
23628;SDS011;11991;57.150;-2.134;2024-03-08T08:10:43;3.95;;;2.70;;
23628;SDS011;11991;57.150;-2.134;2024-03-08T08:13:10;2.92;;;2.50;;
23628;SDS011;11991;57.150;-2.134;2024-03-08T08:15:37;5.45;;;2.58;;
23628;SDS011;11991;57.150;-2.134;2024-03-08T08:18:05;5.43;;;2.63;;
23628;SDS011;11991;57.150;-2.134;2024-03-08T08:20:33;5.43;;;3.50;;
23628;SDS011;11991;57.150;-2.134;2024-03-08T08:23:01;5.20;;;3.13;;
23628;SDS011;11991;57.150;-2.134;2024-03-08T08:25:28;4.55;;;2.20;;
23628;SDS011;11991;57.150;-2.134;2024-03-08T08:27:55;3.08;;;2.08;;
23628;SDS011;11991;57.150;-2.134;2024-03-08T08:30:22;3.63;;;2.70;;
23628;SDS011;11991;57.150;-2.134;2024-03-08T08:32:50;5.00;;;2.90;;
23628;SDS011;11991;57.150;-2.134;2024-03-08T08:35:17;5.83;;;3.07;;
23628;SDS011;11991;57.150;-2.134;2024-03-08T08:37:46;3.78;;;2.88;;
23628;SDS011;11991;57.150;-2.134;2024-03-08T08:40:13;3.43;;;2.20;;
23628;SDS011;11991;57.150;-2.134;2024-03-08T08:42:42;5.93;;;2.38;;
23628;SDS011;11991;57.150;-2.134;2024-03-08T08:45:12;4.30;;;3.00;;
23628;SDS011;11991;57.150;-2.134;2024-03-08T08:47:46;5.27;;;2.70;;
23628;SDS011;11991;57.150;-2.134;2024-03-08T08:50:14;7.97;;;3.67;;
23628;SDS011;11991;57.150;-2.134;2024-03-08T08:52:42;3.40;;;2.47;;
23628;SDS011;11991;57.150;-2.134;2024-03-08T08:55:10;3.60;;;2.30;;
23628;SDS011;11991;57.150;-2.134;2024-03-08T08:57:41;4.82;;;3.05;;
23628;SDS011;11991;57.150;-2.134;2024-03-08T09:00:09;4.27;;;2.80;;
23628;SDS011;11991;57.150;-2.134;2024-03-08T09:02:42;4.15;;;2.22;;
23628;SDS011;11991;57.150;-2.134;2024-03-08T09:05:10;6.10;;;3.72;;
23628;SDS011;11991;57.150;-2.134;2024-03-08T09:07:38;4.53;;;3.20;;
23628;SDS011;11991;57.150;-2.134;2024-03-08T09:10:05;7.07;;;2.95;;
23628;SDS011;11991;57.150;-2.134;2024-03-08T09:12:39;4.53;;;2.60;;
23628;SDS011;11991;57.150;-2.134;2024-03-08T09:15:06;6.90;;;2.90;;
23628;SDS011;11991;57.150;-2.134;2024-03-08T09:17:40;4.17;;;2.97;;
23628;SDS011;11991;57.150;-2.134;2024-03-08T09:20:09;3.97;;;2.80;;
23628;SDS011;11991;57.150;-2.134;2024-03-08T09:22:37;5.67;;;3.80;;
23628;SDS011;11991;57.150;-2.134;2024-03-08T09:25:04;4.45;;;2.78;;
23628;SDS011;11991;57.150;-2.134;2024-03-08T09:27:32;5.45;;;3.70;;
23628;SDS011;11991;57.150;-2.134;2024-03-08T09:30:05;6.55;;;3.67;;
23628;SDS011;11991;57.150;-2.134;2024-03-08T09:32:34;9.00;;;4.78;;
23628;SDS011;11991;57.150;-2.134;2024-03-08T09:35:01;7.80;;;3.95;;
23628;SDS011;11991;57.150;-2.134;2024-03-08T09:37:29;5.80;;;3.40;;
23628;SDS011;11991;57.150;-2.134;2024-03-08T09:39:57;5.45;;;3.40;;
23628;SDS011;11991;57.150;-2.134;2024-03-08T09:42:26;5.05;;;3.00;;
23628;SDS011;11991;57.150;-2.134;2024-03-08T09:44:53;7.53;;;3.70;;
23628;SDS011;11991;57.150;-2.134;2024-03-08T09:47:20;6.00;;;3.72;;
23628;SDS011;11991;57.150;-2.134;2024-03-08T09:49:51;4.78;;;3.45;;
23628;SDS011;11991;57.150;-2.134;2024-03-08T09:52:19;5.28;;;3.17;;
23628;SDS011;11991;57.150;-2.134;2024-03-08T09:54:47;5.47;;;3.42;;
23628;SDS011;11991;57.150;-2.134;2024-03-08T09:57:16;5.78;;;3.97;;
23628;SDS011;11991;57.150;-2.134;2024-03-08T09:59:46;7.45;;;3.85;;
23628;SDS011;11991;57.150;-2.134;2024-03-08T10:02:15;12.13;;;5.65;;
23628;SDS011;11991;57.150;-2.134;2024-03-08T10:04:43;7.00;;;4.45;;
23628;SDS011;11991;57.150;-2.134;2024-03-08T10:07:13;8.02;;;5.60;;
23628;SDS011;11991;57.150;-2.134;2024-03-08T10:09:41;8.32;;;4.90;;
23628;SDS011;11991;57.150;-2.134;2024-03-08T10:12:14;6.82;;;3.95;;
23628;SDS011;11991;57.150;-2.134;2024-03-08T10:14:46;9.40;;;4.75;;
23628;SDS011;11991;57.150;-2.134;2024-03-08T10:17:13;8.40;;;4.40;;
23628;SDS011;11991;57.150;-2.134;2024-03-08T10:19:49;7.03;;;3.78;;
23628;SDS011;11991;57.150;-2.134;2024-03-08T10:22:18;9.07;;;4.57;;
23628;SDS011;11991;57.150;-2.134;2024-03-08T10:24:46;6.35;;;3.90;;
23628;SDS011;11991;57.150;-2.134;2024-03-08T10:27:14;12.45;;;6.68;;
23628;SDS011;11991;57.150;-2.134;2024-03-08T10:29:46;12.07;;;7.22;;
23628;SDS011;11991;57.150;-2.134;2024-03-08T10:32:18;12.13;;;6.90;;
23628;SDS011;11991;57.150;-2.134;2024-03-08T10:34:45;10.55;;;6.25;;
23628;SDS011;11991;57.150;-2.134;2024-03-08T10:37:15;16.00;;;6.68;;
23628;SDS011;11991;57.150;-2.134;2024-03-08T10:40:02;8.52;;;5.68;;
23628;SDS011;11991;57.150;-2.134;2024-03-08T10:42:43;12.85;;;7.05;;
23628;SDS011;11991;57.150;-2.134;2024-03-08T10:45:37;9.20;;;4.97;;
23628;SDS011;11991;57.150;-2.134;2024-03-08T10:48:29;8.02;;;4.75;;
23628;SDS011;11991;57.150;-2.134;2024-03-08T10:51:05;7.05;;;5.10;;
23628;SDS011;11991;57.150;-2.134;2024-03-08T10:53:34;7.05;;;4.85;;
23628;SDS011;11991;57.150;-2.134;2024-03-08T10:56:04;11.65;;;5.70;;
23628;SDS011;11991;57.150;-2.134;2024-03-08T10:58:31;11.45;;;6.25;;
23628;SDS011;11991;57.150;-2.134;2024-03-08T11:01:01;19.23;;;9.02;;
23628;SDS011;11991;57.150;-2.134;2024-03-08T11:06:15;17.42;;;8.70;;
23628;SDS011;11991;57.150;-2.134;2024-03-08T11:08:45;14.25;;;7.78;;
23628;SDS011;11991;57.150;-2.134;2024-03-08T11:11:26;13.65;;;7.75;;
23628;SDS011;11991;57.150;-2.134;2024-03-08T11:14:01;12.02;;;7.72;;
23628;SDS011;11991;57.150;-2.134;2024-03-08T11:18:58;16.67;;;8.70;;
23628;SDS011;11991;57.150;-2.134;2024-03-08T11:21:32;11.95;;;7.00;;
23628;SDS011;11991;57.150;-2.134;2024-03-08T11:26:28;8.85;;;6.07;;
23628;SDS011;11991;57.150;-2.134;2024-03-08T11:32:05;14.50;;;8.85;;
23628;SDS011;11991;57.150;-2.134;2024-03-08T11:34:34;14.80;;;7.38;;
23628;SDS011;11991;57.150;-2.134;2024-03-08T11:37:04;19.40;;;11.23;;
23628;SDS011;11991;57.150;-2.134;2024-03-08T11:39:36;14.98;;;8.13;;
23628;SDS011;11991;57.150;-2.134;2024-03-08T11:42:03;14.55;;;8.75;;
23628;SDS011;11991;57.150;-2.134;2024-03-08T11:44:31;11.80;;;7.10;;
23628;SDS011;11991;57.150;-2.134;2024-03-08T11:46:58;16.05;;;9.70;;
23628;SDS011;11991;57.150;-2.134;2024-03-08T11:49:26;18.10;;;9.20;;
23628;SDS011;11991;57.150;-2.134;2024-03-08T11:51:54;12.30;;;7.15;;
23628;SDS011;11991;57.150;-2.134;2024-03-08T11:54:22;15.27;;;8.93;;
23628;SDS011;11991;57.150;-2.134;2024-03-08T11:56:51;17.85;;;8.02;;
23628;SDS011;11991;57.150;-2.134;2024-03-08T11:59:19;15.80;;;8.82;;
23628;SDS011;11991;57.150;-2.134;2024-03-08T12:01:57;20.10;;;9.63;;
23628;SDS011;11991;57.150;-2.134;2024-03-08T12:04:26;18.70;;;10.82;;
23628;SDS011;11991;57.150;-2.134;2024-03-08T12:06:53;15.43;;;8.05;;
23628;SDS011;11991;57.150;-2.134;2024-03-08T12:09:20;19.30;;;9.30;;
23628;SDS011;11991;57.150;-2.134;2024-03-08T12:11:48;13.88;;;7.35;;
23628;SDS011;11991;57.150;-2.134;2024-03-08T12:14:17;19.35;;;9.52;;
23628;SDS011;11991;57.150;-2.134;2024-03-08T12:16:45;11.52;;;6.90;;
23628;SDS011;11991;57.150;-2.134;2024-03-08T12:19:12;18.90;;;9.23;;
23628;SDS011;11991;57.150;-2.134;2024-03-08T12:21:41;20.95;;;10.73;;
23628;SDS011;11991;57.150;-2.134;2024-03-08T12:24:15;24.05;;;11.63;;
23628;SDS011;11991;57.150;-2.134;2024-03-08T12:26:46;19.40;;;10.82;;
23628;SDS011;11991;57.150;-2.134;2024-03-08T12:31:47;20.77;;;10.82;;
23628;SDS011;11991;57.150;-2.134;2024-03-08T12:34:19;20.58;;;10.20;;
23628;SDS011;11991;57.150;-2.134;2024-03-08T12:36:47;21.23;;;10.88;;
23628;SDS011;11991;57.150;-2.134;2024-03-08T12:39:18;14.00;;;7.38;;
23628;SDS011;11991;57.150;-2.134;2024-03-08T12:41:49;20.15;;;9.85;;
23628;SDS011;11991;57.150;-2.134;2024-03-08T12:44:18;15.50;;;8.88;;
23628;SDS011;11991;57.150;-2.134;2024-03-08T12:46:48;17.20;;;8.43;;
23628;SDS011;11991;57.150;-2.134;2024-03-08T12:49:19;22.55;;;11.90;;
23628;SDS011;11991;57.150;-2.134;2024-03-08T12:51:49;20.38;;;11.07;;
23628;SDS011;11991;57.150;-2.134;2024-03-08T12:54:16;17.05;;;8.95;;
23628;SDS011;11991;57.150;-2.134;2024-03-08T12:56:43;12.85;;;7.45;;
23628;SDS011;11991;57.150;-2.134;2024-03-08T12:59:10;18.08;;;9.75;;
23628;SDS011;11991;57.150;-2.134;2024-03-08T13:01:39;16.27;;;9.63;;
23628;SDS011;11991;57.150;-2.134;2024-03-08T13:04:06;16.85;;;8.52;;
23628;SDS011;11991;57.150;-2.134;2024-03-08T13:06:38;19.27;;;8.68;;
23628;SDS011;11991;57.150;-2.134;2024-03-08T13:09:05;24.83;;;12.85;;
23628;SDS011;11991;57.150;-2.134;2024-03-08T13:11:32;15.20;;;7.82;;
23628;SDS011;11991;57.150;-2.134;2024-03-08T13:14:03;20.25;;;11.63;;
23628;SDS011;11991;57.150;-2.134;2024-03-08T13:16:34;16.45;;;8.82;;
23628;SDS011;11991;57.150;-2.134;2024-03-08T13:19:02;18.55;;;8.85;;
23628;SDS011;11991;57.150;-2.134;2024-03-08T13:21:29;21.90;;;12.07;;
23628;SDS011;11991;57.150;-2.134;2024-03-08T13:23:56;17.90;;;9.85;;
23628;SDS011;11991;57.150;-2.134;2024-03-08T13:26:25;11.63;;;6.80;;
23628;SDS011;11991;57.150;-2.134;2024-03-08T13:28:59;11.98;;;6.82;;
23628;SDS011;11991;57.150;-2.134;2024-03-08T13:31:27;14.48;;;8.30;;
23628;SDS011;11991;57.150;-2.134;2024-03-08T13:33:54;15.43;;;7.47;;
23628;SDS011;11991;57.150;-2.134;2024-03-08T13:36:25;21.48;;;11.32;;
23628;SDS011;11991;57.150;-2.134;2024-03-08T13:38:56;12.35;;;7.75;;
23628;SDS011;11991;57.150;-2.134;2024-03-08T13:41:26;16.95;;;9.43;;
23628;SDS011;11991;57.150;-2.134;2024-03-08T13:43:56;21.67;;;11.95;;
23628;SDS011;11991;57.150;-2.134;2024-03-08T13:46:24;12.38;;;6.85;;
23628;SDS011;11991;57.150;-2.134;2024-03-08T13:48:51;14.30;;;8.45;;
23628;SDS011;11991;57.150;-2.134;2024-03-08T13:51:27;21.80;;;10.63;;
23628;SDS011;11991;57.150;-2.134;2024-03-08T13:53:54;12.13;;;6.28;;
23628;SDS011;11991;57.150;-2.134;2024-03-08T13:56:21;15.75;;;9.55;;
23628;SDS011;11991;57.150;-2.134;2024-03-08T13:58:49;19.20;;;9.73;;
23628;SDS011;11991;57.150;-2.134;2024-03-08T14:01:18;11.27;;;6.90;;
23628;SDS011;11991;57.150;-2.134;2024-03-08T14:03:47;16.02;;;9.15;;
23628;SDS011;11991;57.150;-2.134;2024-03-08T14:06:15;12.25;;;7.75;;
23628;SDS011;11991;57.150;-2.134;2024-03-08T14:08:49;16.42;;;9.32;;
23628;SDS011;11991;57.150;-2.134;2024-03-08T14:11:16;15.07;;;9.10;;
23628;SDS011;11991;57.150;-2.134;2024-03-08T14:13:45;14.65;;;8.75;;
23628;SDS011;11991;57.150;-2.134;2024-03-08T14:16:13;16.42;;;9.25;;
23628;SDS011;11991;57.150;-2.134;2024-03-08T14:18:42;17.60;;;9.45;;
23628;SDS011;11991;57.150;-2.134;2024-03-08T14:21:09;19.35;;;10.52;;
23628;SDS011;11991;57.150;-2.134;2024-03-08T14:23:37;16.85;;;8.98;;
23628;SDS011;11991;57.150;-2.134;2024-03-08T14:26:07;18.48;;;9.13;;
23628;SDS011;11991;57.150;-2.134;2024-03-08T14:28:35;18.15;;;8.65;;
23628;SDS011;11991;57.150;-2.134;2024-03-08T14:31:02;18.75;;;7.88;;
23628;SDS011;11991;57.150;-2.134;2024-03-08T14:33:33;13.30;;;7.45;;
23628;SDS011;11991;57.150;-2.134;2024-03-08T14:36:00;16.65;;;9.55;;
23628;SDS011;11991;57.150;-2.134;2024-03-08T14:38:28;13.68;;;7.75;;
23628;SDS011;11991;57.150;-2.134;2024-03-08T14:40:55;14.98;;;7.32;;
23628;SDS011;11991;57.150;-2.134;2024-03-08T14:43:22;19.73;;;10.20;;
23628;SDS011;11991;57.150;-2.134;2024-03-08T14:45:50;16.52;;;9.88;;
23628;SDS011;11991;57.150;-2.134;2024-03-08T14:48:19;15.43;;;8.60;;
23628;SDS011;11991;57.150;-2.134;2024-03-08T14:50:47;21.98;;;11.27;;
23628;SDS011;11991;57.150;-2.134;2024-03-08T14:53:14;15.30;;;8.88;;